sensor_id;sensor_type;location;lat;lon;timestamp;pressure;altitude;pressure_sealevel;temperature;humidity
9784;BME280;4931;44.874;-1.092;2023-04-23T00:02:15;100833.59;;;10.08;100.00
9784;BME280;4931;44.874;-1.092;2023-04-23T00:04:48;100834.97;;;10.21;100.00
9784;BME280;4931;44.874;-1.092;2023-04-23T00:07:14;100838.53;;;10.27;100.00
9784;BME280;4931;44.874;-1.092;2023-04-23T00:09:42;100829.75;;;10.25;100.00
9784;BME280;4931;44.874;-1.092;2023-04-23T00:12:08;100806.47;;;10.22;100.00
9784;BME280;4931;44.874;-1.092;2023-04-23T00:14:34;100808.91;;;10.29;100.00
9784;BME280;4931;44.874;-1.092;2023-04-23T00:16:59;100799.59;;;10.30;100.00
9784;BME280;4931;44.874;-1.092;2023-04-23T00:19:25;100798.75;;;10.35;100.00
9784;BME280;4931;44.874;-1.092;2023-04-23T00:21:50;100794.13;;;10.35;100.00
9784;BME280;4931;44.874;-1.092;2023-04-23T00:24:16;100791.63;;;10.44;100.00
9784;BME280;4931;44.874;-1.092;2023-04-23T00:26:42;100777.09;;;10.43;100.00
9784;BME280;4931;44.874;-1.092;2023-04-23T00:29:07;100778.47;;;10.41;100.00
9784;BME280;4931;44.874;-1.092;2023-04-23T00:31:32;100775.44;;;10.42;100.00
9784;BME280;4931;44.874;-1.092;2023-04-23T00:33:58;100772.69;;;10.48;100.00
9784;BME280;4931;44.874;-1.092;2023-04-23T00:36:24;100756.81;;;10.50;100.00
9784;BME280;4931;44.874;-1.092;2023-04-23T00:38:50;100752.41;;;10.49;100.00
9784;BME280;4931;44.874;-1.092;2023-04-23T00:41:16;100747.47;;;10.56;100.00
9784;BME280;4931;44.874;-1.092;2023-04-23T00:43:42;100748.53;;;10.60;100.00
9784;BME280;4931;44.874;-1.092;2023-04-23T00:46:08;100741.41;;;10.59;100.00
9784;BME280;4931;44.874;-1.092;2023-04-23T00:48:35;100747.16;;;10.62;100.00
9784;BME280;4931;44.874;-1.092;2023-04-23T00:51:04;100746.31;;;10.62;100.00
9784;BME280;4931;44.874;-1.092;2023-04-23T00:53:31;100734.84;;;10.55;100.00
9784;BME280;4931;44.874;-1.092;2023-04-23T00:55:57;100721.09;;;10.60;100.00
9784;BME280;4931;44.874;-1.092;2023-04-23T00:58:24;100705.72;;;10.64;100.00
9784;BME280;4931;44.874;-1.092;2023-04-23T01:00:50;100708.47;;;10.64;100.00
9784;BME280;4931;44.874;-1.092;2023-04-23T01:03:16;100693.69;;;10.60;100.00
9784;BME280;4931;44.874;-1.092;2023-04-23T01:05:43;100700.78;;;10.61;100.00
9784;BME280;4931;44.874;-1.092;2023-04-23T01:08:13;100693.72;;;10.50;100.00
9784;BME280;4931;44.874;-1.092;2023-04-23T01:10:40;100686.25;;;10.60;100.00
9784;BME280;4931;44.874;-1.092;2023-04-23T01:13:05;100696.03;;;10.82;100.00
9784;BME280;4931;44.874;-1.092;2023-04-23T01:15:31;100690.22;;;10.89;100.00
9784;BME280;4931;44.874;-1.092;2023-04-23T01:17:56;100689.75;;;10.71;100.00
9784;BME280;4931;44.874;-1.092;2023-04-23T01:20:23;100690.31;;;10.73;100.00
9784;BME280;4931;44.874;-1.092;2023-04-23T01:22:48;100684.31;;;10.61;100.00
9784;BME280;4931;44.874;-1.092;2023-04-23T01:25:14;100676.06;;;10.66;100.00
9784;BME280;4931;44.874;-1.092;2023-04-23T01:27:39;100665.03;;;10.76;100.00
9784;BME280;4931;44.874;-1.092;2023-04-23T01:30:06;100659.59;;;10.71;100.00
9784;BME280;4931;44.874;-1.092;2023-04-23T01:32:33;100670.53;;;10.76;100.00
9784;BME280;4931;44.874;-1.092;2023-04-23T01:34:59;100651.84;;;10.84;100.00
9784;BME280;4931;44.874;-1.092;2023-04-23T01:37:25;100638.22;;;10.68;100.00
9784;BME280;4931;44.874;-1.092;2023-04-23T01:39:51;100632.69;;;10.73;100.00
9784;BME280;4931;44.874;-1.092;2023-04-23T01:42:16;100612.91;;;10.76;100.00
9784;BME280;4931;44.874;-1.092;2023-04-23T01:44:42;100614.47;;;10.93;100.00
9784;BME280;4931;44.874;-1.092;2023-04-23T01:47:08;100606.03;;;10.79;100.00
9784;BME280;4931;44.874;-1.092;2023-04-23T01:49:34;100599.75;;;10.78;100.00
9784;BME280;4931;44.874;-1.092;2023-04-23T01:52:00;100613.25;;;11.04;100.00
9784;BME280;4931;44.874;-1.092;2023-04-23T01:54:25;100607.00;;;10.99;100.00
9784;BME280;4931;44.874;-1.092;2023-04-23T01:56:51;100603.97;;;11.00;100.00
9784;BME280;4931;44.874;-1.092;2023-04-23T01:59:20;100599.84;;;10.98;100.00
9784;BME280;4931;44.874;-1.092;2023-04-23T02:01:46;100610.53;;;10.99;100.00
9784;BME280;4931;44.874;-1.092;2023-04-23T02:04:13;100606.66;;;11.05;100.00
9784;BME280;4931;44.874;-1.092;2023-04-23T02:06:43;100602.56;;;11.03;100.00
9784;BME280;4931;44.874;-1.092;2023-04-23T02:09:09;100582.81;;;11.06;100.00
9784;BME280;4931;44.874;-1.092;2023-04-23T02:11:35;100590.44;;;11.09;100.00
9784;BME280;4931;44.874;-1.092;2023-04-23T02:14:02;100589.06;;;11.11;100.00
9784;BME280;4931;44.874;-1.092;2023-04-23T02:16:28;100595.06;;;11.13;100.00
9784;BME280;4931;44.874;-1.092;2023-04-23T02:18:55;100585.22;;;11.12;100.00
9784;BME280;4931;44.874;-1.092;2023-04-23T02:21:23;100588.44;;;11.20;100.00
9784;BME280;4931;44.874;-1.092;2023-04-23T02:23:49;100589.06;;;11.11;100.00
9784;BME280;4931;44.874;-1.092;2023-04-23T02:26:15;100596.63;;;11.25;100.00
9784;BME280;4931;44.874;-1.092;2023-04-23T02:28:41;100602.06;;;11.30;100.00
9784;BME280;4931;44.874;-1.092;2023-04-23T02:31:07;100601.59;;;11.23;100.00
9784;BME280;4931;44.874;-1.092;2023-04-23T02:33:32;100601.59;;;11.23;100.00
9784;BME280;4931;44.874;-1.092;2023-04-23T02:35:58;100601.59;;;11.23;100.00
9784;BME280;4931;44.874;-1.092;2023-04-23T02:38:24;100597.16;;;11.27;100.00
9784;BME280;4931;44.874;-1.092;2023-04-23T02:40:49;100593.97;;;11.15;100.00
9784;BME280;4931;44.874;-1.092;2023-04-23T02:43:15;100584.28;;;11.22;100.00
9784;BME280;4931;44.874;-1.092;2023-04-23T02:45:42;100591.03;;;11.35;100.00
9784;BME280;4931;44.874;-1.092;2023-04-23T02:48:09;100588.28;;;11.35;100.00
9784;BME280;4931;44.874;-1.092;2023-04-23T02:50:35;100594.38;;;11.32;100.00
9784;BME280;4931;44.874;-1.092;2023-04-23T02:53:03;100582.50;;;11.37;100.00
9784;BME280;4931;44.874;-1.092;2023-04-23T02:55:29;100580.16;;;11.25;100.00
9784;BME280;4931;44.874;-1.092;2023-04-23T02:57:56;100570.16;;;11.34;100.00
9784;BME280;4931;44.874;-1.092;2023-04-23T03:00:23;100560.88;;;11.30;100.00
9784;BME280;4931;44.874;-1.092;2023-04-23T03:02:49;100554.38;;;11.21;100.00
9784;BME280;4931;44.874;-1.092;2023-04-23T03:05:15;100560.72;;;11.45;100.00
9784;BME280;4931;44.874;-1.092;2023-04-23T03:07:40;100566.53;;;11.44;100.00
9784;BME280;4931;44.874;-1.092;2023-04-23T03:10:06;100566.69;;;11.53;100.00
9784;BME280;4931;44.874;-1.092;2023-04-23T03:12:32;100568.81;;;11.61;100.00
9784;BME280;4931;44.874;-1.092;2023-04-23T03:14:58;100553.78;;;11.77;100.00
9784;BME280;4931;44.874;-1.092;2023-04-23T03:17:23;100558.88;;;11.65;100.00
9784;BME280;4931;44.874;-1.092;2023-04-23T03:19:49;100556.28;;;11.50;100.00
9784;BME280;4931;44.874;-1.092;2023-04-23T03:22:14;100550.19;;;11.53;100.00
9784;BME280;4931;44.874;-1.092;2023-04-23T03:24:40;100544.19;;;11.75;100.00
9784;BME280;4931;44.874;-1.092;2023-04-23T03:27:05;100549.16;;;11.49;100.00
9784;BME280;4931;44.874;-1.092;2023-04-23T03:29:31;100535.72;;;11.47;100.00
9784;BME280;4931;44.874;-1.092;2023-04-23T03:31:56;100530.41;;;11.56;100.00
9784;BME280;4931;44.874;-1.092;2023-04-23T03:34:22;100532.84;;;11.57;100.00
9784;BME280;4931;44.874;-1.092;2023-04-23T03:36:47;100543.50;;;11.64;100.00
9784;BME280;4931;44.874;-1.092;2023-04-23T03:39:14;100542.72;;;11.83;100.00
9784;BME280;4931;44.874;-1.092;2023-04-23T03:41:39;100540.94;;;11.97;100.00
9784;BME280;4931;44.874;-1.092;2023-04-23T03:44:05;100537.34;;;11.72;100.00
9784;BME280;4931;44.874;-1.092;2023-04-23T03:46:30;100540.56;;;11.79;100.00
9784;BME280;4931;44.874;-1.092;2023-04-23T03:48:56;100535.38;;;11.78;100.00
9784;BME280;4931;44.874;-1.092;2023-04-23T03:51:22;100538.38;;;11.76;100.00
9784;BME280;4931;44.874;-1.092;2023-04-23T03:53:48;100528.00;;;11.73;100.00
9784;BME280;4931;44.874;-1.092;2023-04-23T03:56:14;100513.72;;;11.71;100.00
9784;BME280;4931;44.874;-1.092;2023-04-23T03:58:39;100530.22;;;11.71;100.00
9784;BME280;4931;44.874;-1.092;2023-04-23T04:01:05;100529.16;;;11.67;100.00
9784;BME280;4931;44.874;-1.092;2023-04-23T04:03:31;100523.16;;;11.65;100.00
9784;BME280;4931;44.874;-1.092;2023-04-23T04:05:56;100528.66;;;11.65;100.00
9784;BME280;4931;44.874;-1.092;2023-04-23T04:08:22;100530.69;;;11.78;100.00
9784;BME280;4931;44.874;-1.092;2023-04-23T04:10:48;100524.47;;;11.92;100.00
9784;BME280;4931;44.874;-1.092;2023-04-23T04:13:14;100509.69;;;11.88;100.00
9784;BME280;4931;44.874;-1.092;2023-04-23T04:15:40;100523.50;;;11.83;100.00
9784;BME280;4931;44.874;-1.092;2023-04-23T04:18:05;100521.91;;;11.76;100.00
9784;BME280;4931;44.874;-1.092;2023-04-23T04:20:31;100530.03;;;11.87;100.00
9784;BME280;4931;44.874;-1.092;2023-04-23T04:22:57;100519.94;;;11.82;100.00
9784;BME280;4931;44.874;-1.092;2023-04-23T04:25:22;100526.13;;;11.93;100.00
9784;BME280;4931;44.874;-1.092;2023-04-23T04:27:49;100530.09;;;11.82;100.00
9784;BME280;4931;44.874;-1.092;2023-04-23T04:30:14;100517.31;;;11.91;100.00
9784;BME280;4931;44.874;-1.092;2023-04-23T04:32:40;100530.56;;;11.89;100.00
9784;BME280;4931;44.874;-1.092;2023-04-23T04:35:07;100526.13;;;11.93;100.00
9784;BME280;4931;44.874;-1.092;2023-04-23T04:37:34;100524.16;;;11.74;100.00
9784;BME280;4931;44.874;-1.092;2023-04-23T04:40:00;100538.75;;;11.94;100.00
9784;BME280;4931;44.874;-1.092;2023-04-23T04:42:27;100532.38;;;11.74;100.00
9784;BME280;4931;44.874;-1.092;2023-04-23T04:44:52;100527.03;;;11.83;100.00
9784;BME280;4931;44.874;-1.092;2023-04-23T04:47:18;100545.41;;;11.88;100.00
9784;BME280;4931;44.874;-1.092;2023-04-23T04:49:43;100539.81;;;11.98;100.00
9784;BME280;4931;44.874;-1.092;2023-04-23T04:52:10;100542.59;;;11.93;100.00
9784;BME280;4931;44.874;-1.092;2023-04-23T04:54:35;100546.56;;;11.82;100.00
9784;BME280;4931;44.874;-1.092;2023-04-23T04:57:01;100560.25;;;11.87;100.00
9784;BME280;4931;44.874;-1.092;2023-04-23T04:59:26;100548.06;;;11.98;100.00
9784;BME280;4931;44.874;-1.092;2023-04-23T05:01:52;100555.00;;;12.15;100.00
9784;BME280;4931;44.874;-1.092;2023-04-23T05:04:17;100557.22;;;12.12;100.00
9784;BME280;4931;44.874;-1.092;2023-04-23T05:06:43;100543.53;;;12.07;100.00
9784;BME280;4931;44.874;-1.092;2023-04-23T05:09:09;100552.31;;;12.09;100.00
9784;BME280;4931;44.874;-1.092;2023-04-23T05:11:35;100559.44;;;12.10;100.00
9784;BME280;4931;44.874;-1.092;2023-04-23T05:14:00;100557.22;;;12.12;100.00
9784;BME280;4931;44.874;-1.092;2023-04-23T05:16:26;100559.41;;;12.35;100.00
9784;BME280;4931;44.874;-1.092;2023-04-23T05:18:51;100554.84;;;12.25;100.00
9784;BME280;4931;44.874;-1.092;2023-04-23T05:21:17;100562.47;;;12.33;100.00
9784;BME280;4931;44.874;-1.092;2023-04-23T05:23:43;100562.69;;;12.56;100.00
9784;BME280;4931;44.874;-1.092;2023-04-23T05:26:09;100563.19;;;12.58;100.00
9784;BME280;4931;44.874;-1.092;2023-04-23T05:28:35;100564.22;;;12.81;100.00
9784;BME280;4931;44.874;-1.092;2023-04-23T05:31:01;100568.38;;;12.78;100.00
9784;BME280;4931;44.874;-1.092;2023-04-23T05:33:27;100573.56;;;12.99;100.00
9784;BME280;4931;44.874;-1.092;2023-04-23T05:35:53;100590.00;;;13.04;100.00
9784;BME280;4931;44.874;-1.092;2023-04-23T05:38:19;100585.00;;;13.06;100.00
9784;BME280;4931;44.874;-1.092;2023-04-23T05:40:45;100589.38;;;13.26;100.00
9784;BME280;4931;44.874;-1.092;2023-04-23T05:43:11;100593.63;;;13.19;100.00
9784;BME280;4931;44.874;-1.092;2023-04-23T05:45:36;100595.63;;;13.13;100.00
9784;BME280;4931;44.874;-1.092;2023-04-23T05:48:02;100594.00;;;13.12;100.00
9784;BME280;4931;44.874;-1.092;2023-04-23T05:50:28;100597.91;;;13.25;100.00
9784;BME280;4931;44.874;-1.092;2023-04-23T05:52:53;100604.97;;;13.31;100.00
9784;BME280;4931;44.874;-1.092;2023-04-23T05:55:19;100611.00;;;13.33;100.00
9784;BME280;4931;44.874;-1.092;2023-04-23T05:57:45;100608.00;;;13.49;100.00
9784;BME280;4931;44.874;-1.092;2023-04-23T06:00:11;100608.38;;;13.42;100.00
9784;BME280;4931;44.874;-1.092;2023-04-23T06:02:38;100613.41;;;13.40;100.00
9784;BME280;4931;44.874;-1.092;2023-04-23T06:05:04;100612.13;;;13.65;100.00
9784;BME280;4931;44.874;-1.092;2023-04-23T06:07:30;100626.59;;;13.57;100.00
9784;BME280;4931;44.874;-1.092;2023-04-23T06:09:56;100630.47;;;13.56;100.00
9784;BME280;4931;44.874;-1.092;2023-04-23T06:12:21;100630.56;;;13.51;100.00
9784;BME280;4931;44.874;-1.092;2023-04-23T06:14:47;100636.00;;;13.56;100.00
9784;BME280;4931;44.874;-1.092;2023-04-23T06:17:12;100634.88;;;13.57;100.00
9784;BME280;4931;44.874;-1.092;2023-04-23T06:19:38;100632.53;;;13.64;100.00
9784;BME280;4931;44.874;-1.092;2023-04-23T06:22:03;100638.56;;;13.66;100.00
9784;BME280;4931;44.874;-1.092;2023-04-23T06:24:29;100632.69;;;13.54;100.00
9784;BME280;4931;44.874;-1.092;2023-04-23T06:26:55;100637.72;;;13.52;100.00
9784;BME280;4931;44.874;-1.092;2023-04-23T06:29:22;100644.56;;;13.68;100.00
9784;BME280;4931;44.874;-1.092;2023-04-23T06:31:47;100644.56;;;13.68;100.00
9784;BME280;4931;44.874;-1.092;2023-04-23T06:34:13;100640.59;;;13.74;100.00
9784;BME280;4931;44.874;-1.092;2023-04-23T06:36:38;100642.75;;;13.64;100.00
9784;BME280;4931;44.874;-1.092;2023-04-23T06:39:04;100633.34;;;13.78;100.00
9784;BME280;4931;44.874;-1.092;2023-04-23T06:41:30;100635.50;;;13.68;100.00
9784;BME280;4931;44.874;-1.092;2023-04-23T06:43:55;100643.81;;;13.82;100.00
9784;BME280;4931;44.874;-1.092;2023-04-23T06:46:21;100633.16;;;13.89;100.00
9784;BME280;4931;44.874;-1.092;2023-04-23T06:48:46;100643.06;;;14.04;100.00
9784;BME280;4931;44.874;-1.092;2023-04-23T06:51:12;100636.84;;;14.26;100.00
9784;BME280;4931;44.874;-1.092;2023-04-23T06:53:37;100633.38;;;14.34;100.00
9784;BME280;4931;44.874;-1.092;2023-04-23T06:56:03;100620.50;;;14.30;100.00
9784;BME280;4931;44.874;-1.092;2023-04-23T06:58:28;100641.56;;;14.25;100.00
9784;BME280;4931;44.874;-1.092;2023-04-23T07:00:57;100642.34;;;14.26;100.00
9784;BME280;4931;44.874;-1.092;2023-04-23T07:03:28;100659.94;;;14.16;100.00
9784;BME280;4931;44.874;-1.092;2023-04-23T07:05:55;100666.09;;;14.13;100.00
9784;BME280;4931;44.874;-1.092;2023-04-23T07:08:20;100664.22;;;14.08;100.00
9784;BME280;4931;44.874;-1.092;2023-04-23T07:10:46;100667.09;;;14.03;100.00
9784;BME280;4931;44.874;-1.092;2023-04-23T07:13:12;100668.53;;;14.15;100.00
9784;BME280;4931;44.874;-1.092;2023-04-23T07:15:38;100673.13;;;14.05;100.00
9784;BME280;4931;44.874;-1.092;2023-04-23T07:18:04;100678.13;;;14.17;100.00
9784;BME280;4931;44.874;-1.092;2023-04-23T07:20:31;100683.66;;;14.17;100.00
9784;BME280;4931;44.874;-1.092;2023-04-23T07:22:57;100676.91;;;14.09;100.00
9784;BME280;4931;44.874;-1.092;2023-04-23T07:25:23;100680.06;;;14.03;100.00
9784;BME280;4931;44.874;-1.092;2023-04-23T07:27:49;100680.25;;;14.06;100.00
9784;BME280;4931;44.874;-1.092;2023-04-23T07:30:15;100678.44;;;14.16;100.00
9784;BME280;4931;44.874;-1.092;2023-04-23T07:32:41;100669.44;;;14.10;100.00
9784;BME280;4931;44.874;-1.092;2023-04-23T07:35:07;100674.97;;;14.24;100.00
9784;BME280;4931;44.874;-1.092;2023-04-23T07:37:35;100678.53;;;14.10;100.00
9784;BME280;4931;44.874;-1.092;2023-04-23T07:40:01;100682.22;;;14.20;100.00
9784;BME280;4931;44.874;-1.092;2023-04-23T07:42:26;100679.97;;;14.22;100.00
9784;BME280;4931;44.874;-1.092;2023-04-23T07:44:52;100671.97;;;14.06;100.00
9784;BME280;4931;44.874;-1.092;2023-04-23T07:47:18;100669.13;;;14.11;100.00
9784;BME280;4931;44.874;-1.092;2023-04-23T07:49:44;100675.88;;;14.19;100.00
9784;BME280;4931;44.874;-1.092;2023-04-23T07:52:09;100668.72;;;14.04;100.00
9784;BME280;4931;44.874;-1.092;2023-04-23T07:54:35;100669.13;;;14.11;100.00
9784;BME280;4931;44.874;-1.092;2023-04-23T07:57:00;100690.38;;;14.11;100.00
9784;BME280;4931;44.874;-1.092;2023-04-23T07:59:27;100701.81;;;14.04;100.00
9784;BME280;4931;44.874;-1.092;2023-04-23T08:01:52;100703.47;;;14.05;100.00
9784;BME280;4931;44.874;-1.092;2023-04-23T08:04:18;100704.69;;;13.99;100.00
9784;BME280;4931;44.874;-1.092;2023-04-23T08:06:43;100725.72;;;14.09;100.00
9784;BME280;4931;44.874;-1.092;2023-04-23T08:09:09;100733.50;;;14.07;100.00
9784;BME280;4931;44.874;-1.092;2023-04-23T08:11:34;100741.06;;;14.01;100.00
9784;BME280;4931;44.874;-1.092;2023-04-23T08:14:00;100759.41;;;13.92;100.00
9784;BME280;4931;44.874;-1.092;2023-04-23T08:16:26;100769.03;;;14.08;100.00
9784;BME280;4931;44.874;-1.092;2023-04-23T08:18:52;100787.63;;;14.03;100.00
9784;BME280;4931;44.874;-1.092;2023-04-23T08:21:17;100805.78;;;13.90;100.00
9784;BME280;4931;44.874;-1.092;2023-04-23T08:23:43;100810.00;;;14.01;100.00
9784;BME280;4931;44.874;-1.092;2023-04-23T08:26:09;100821.44;;;14.08;100.00
9784;BME280;4931;44.874;-1.092;2023-04-23T08:28:34;100835.94;;;14.00;100.00
9784;BME280;4931;44.874;-1.092;2023-04-23T08:31:00;100839.50;;;14.01;100.00
9784;BME280;4931;44.874;-1.092;2023-04-23T08:33:26;100855.09;;;14.10;100.00
9784;BME280;4931;44.874;-1.092;2023-04-23T08:35:51;100852.00;;;14.12;100.00
9784;BME280;4931;44.874;-1.092;2023-04-23T08:38:17;100851.38;;;14.01;100.00
9784;BME280;4931;44.874;-1.092;2023-04-23T08:40:44;100870.50;;;14.11;100.00
9784;BME280;4931;44.874;-1.092;2023-04-23T08:43:19;100865.50;;;14.14;100.00
9784;BME280;4931;44.874;-1.092;2023-04-23T08:45:46;100867.94;;;14.15;100.00
9784;BME280;4931;44.874;-1.092;2023-04-23T08:48:12;100868.34;;;14.08;100.00
9784;BME280;4931;44.874;-1.092;2023-04-23T08:50:41;100874.00;;;13.98;100.00
9784;BME280;4931;44.874;-1.092;2023-04-23T08:53:07;100870.28;;;14.08;100.00
9784;BME280;4931;44.874;-1.092;2023-04-23T08:55:33;100868.41;;;14.03;100.00
9784;BME280;4931;44.874;-1.092;2023-04-23T08:58:00;100865.81;;;13.93;100.00
9784;BME280;4931;44.874;-1.092;2023-04-23T09:00:27;100862.22;;;14.11;100.00
9784;BME280;4931;44.874;-1.092;2023-04-23T09:02:54;100862.41;;;14.01;100.00
9784;BME280;4931;44.874;-1.092;2023-04-23T09:05:20;100858.16;;;13.90;100.00
9784;BME280;4931;44.874;-1.092;2023-04-23T09:07:45;100856.50;;;13.89;100.00
9784;BME280;4931;44.874;-1.092;2023-04-23T09:10:12;100847.81;;;13.82;100.00
9784;BME280;4931;44.874;-1.092;2023-04-23T09:12:40;100848.41;;;13.78;100.00
9784;BME280;4931;44.874;-1.092;2023-04-23T09:15:07;100840.34;;;13.63;100.00
9784;BME280;4931;44.874;-1.092;2023-04-23T09:17:37;100838.13;;;13.65;100.00
9784;BME280;4931;44.874;-1.092;2023-04-23T09:20:04;100815.69;;;13.72;100.00
9784;BME280;4931;44.874;-1.092;2023-04-23T09:23:00;100808.34;;;13.67;100.00
9784;BME280;4931;44.874;-1.092;2023-04-23T09:25:25;100814.44;;;13.64;100.00
9784;BME280;4931;44.874;-1.092;2023-04-23T09:27:51;100812.72;;;13.68;100.00
9784;BME280;4931;44.874;-1.092;2023-04-23T09:30:17;100807.72;;;13.70;100.00
9784;BME280;4931;44.874;-1.092;2023-04-23T09:32:44;100813.25;;;13.70;100.00
9784;BME280;4931;44.874;-1.092;2023-04-23T09:35:15;100813.41;;;13.79;100.00
9784;BME280;4931;44.874;-1.092;2023-04-23T09:37:45;100807.72;;;13.70;100.00
9784;BME280;4931;44.874;-1.092;2023-04-23T09:40:14;100826.50;;;13.68;100.00
9784;BME280;4931;44.874;-1.092;2023-04-23T09:42:46;100834.31;;;13.80;100.00
9784;BME280;4931;44.874;-1.092;2023-04-23T09:45:12;100843.75;;;13.93;100.00
9784;BME280;4931;44.874;-1.092;2023-04-23T09:47:40;100844.16;;;13.86;100.00
9784;BME280;4931;44.874;-1.092;2023-04-23T09:50:06;100851.53;;;13.91;100.00
9784;BME280;4931;44.874;-1.092;2023-04-23T09:52:37;100871.78;;;14.00;100.00
9784;BME280;4931;44.874;-1.092;2023-04-23T09:55:04;100881.66;;;14.20;100.00
9784;BME280;4931;44.874;-1.092;2023-04-23T09:57:35;100863.00;;;14.31;100.00
9784;BME280;4931;44.874;-1.092;2023-04-23T10:00:15;100870.81;;;14.57;100.00
9784;BME280;4931;44.874;-1.092;2023-04-23T10:02:48;100862.59;;;15.26;100.00
9784;BME280;4931;44.874;-1.092;2023-04-23T10:05:16;100852.25;;;15.83;100.00
9784;BME280;4931;44.874;-1.092;2023-04-23T10:07:43;100850.97;;;16.12;100.00
9784;BME280;4931;44.874;-1.092;2023-04-23T10:10:11;100843.97;;;16.68;100.00
9784;BME280;4931;44.874;-1.092;2023-04-23T10:12:37;100850.97;;;17.15;100.00
9784;BME280;4931;44.874;-1.092;2023-04-23T10:15:03;100853.44;;;17.16;100.00
9784;BME280;4931;44.874;-1.092;2023-04-23T10:17:30;100860.28;;;17.10;100.00
9784;BME280;4931;44.874;-1.092;2023-04-23T10:19:57;100847.72;;;17.21;100.00
9784;BME280;4931;44.874;-1.092;2023-04-23T10:22:27;100842.97;;;17.04;100.00
9784;BME280;4931;44.874;-1.092;2023-04-23T10:24:55;100865.84;;;16.79;100.00
9784;BME280;4931;44.874;-1.092;2023-04-23T10:27:26;100867.31;;;16.85;100.00
9784;BME280;4931;44.874;-1.092;2023-04-23T10:29:52;100865.53;;;16.49;100.00
9784;BME280;4931;44.874;-1.092;2023-04-23T10:32:19;100867.50;;;16.48;100.00
9784;BME280;4931;44.874;-1.092;2023-04-23T10:34:45;100858.88;;;16.50;100.00
9784;BME280;4931;44.874;-1.092;2023-04-23T10:37:11;100867.16;;;16.50;100.00
9784;BME280;4931;44.874;-1.092;2023-04-23T10:39:37;100861.56;;;16.72;100.00
9784;BME280;4931;44.874;-1.092;2023-04-23T10:42:03;100854.13;;;16.82;100.00
9784;BME280;4931;44.874;-1.092;2023-04-23T10:44:35;100874.25;;;16.96;100.00
9784;BME280;4931;44.874;-1.092;2023-04-23T10:47:01;100870.19;;;17.02;100.00
9784;BME280;4931;44.874;-1.092;2023-04-23T10:49:32;100871.88;;;17.21;100.00
9784;BME280;4931;44.874;-1.092;2023-04-23T10:52:14;100876.63;;;17.29;100.00
9784;BME280;4931;44.874;-1.092;2023-04-23T10:54:41;100879.16;;;17.08;100.00
9784;BME280;4931;44.874;-1.092;2023-04-23T10:57:08;100877.25;;;17.17;100.00
9784;BME280;4931;44.874;-1.092;2023-04-23T10:59:38;100886.81;;;17.02;100.00
9784;BME280;4931;44.874;-1.092;2023-04-23T11:02:11;100890.38;;;16.94;100.00
9784;BME280;4931;44.874;-1.092;2023-04-23T11:04:52;100888.53;;;17.38;100.00
9784;BME280;4931;44.874;-1.092;2023-04-23T11:07:19;100894.31;;;17.77;100.00
9784;BME280;4931;44.874;-1.092;2023-04-23T11:09:45;100893.97;;;17.70;100.00
9784;BME280;4931;44.874;-1.092;2023-04-23T11:14:52;100908.84;;;17.83;100.00
9784;BME280;4931;44.874;-1.092;2023-04-23T11:22:36;100907.50;;;17.71;100.00
9784;BME280;4931;44.874;-1.092;2023-04-23T11:25:03;100923.91;;;17.99;100.00
9784;BME280;4931;44.874;-1.092;2023-04-23T11:27:30;100920.28;;;18.25;100.00
9784;BME280;4931;44.874;-1.092;2023-04-23T11:29:56;100923.56;;;18.09;100.00
9784;BME280;4931;44.874;-1.092;2023-04-23T11:32:22;100917.66;;;18.20;100.00
9784;BME280;4931;44.874;-1.092;2023-04-23T11:34:48;100917.38;;;18.13;100.00
9784;BME280;4931;44.874;-1.092;2023-04-23T11:37:16;100926.47;;;18.39;100.00
9784;BME280;4931;44.874;-1.092;2023-04-23T11:39:43;100919.97;;;18.18;100.00
9784;BME280;4931;44.874;-1.092;2023-04-23T11:42:10;100920.13;;;18.39;100.00
9784;BME280;4931;44.874;-1.092;2023-04-23T11:44:38;100927.44;;;18.61;100.00
9784;BME280;4931;44.874;-1.092;2023-04-23T11:47:06;100921.75;;;18.96;100.00
9784;BME280;4931;44.874;-1.092;2023-04-23T11:49:32;100923.63;;;18.66;100.00
9784;BME280;4931;44.874;-1.092;2023-04-23T11:51:59;100931.56;;;19.02;100.00
9784;BME280;4931;44.874;-1.092;2023-04-23T11:54:27;100934.59;;;18.62;100.00
9784;BME280;4931;44.874;-1.092;2023-04-23T11:56:54;100940.94;;;18.80;100.00
9784;BME280;4931;44.874;-1.092;2023-04-23T11:59:19;100946.59;;;19.01;100.00
9784;BME280;4931;44.874;-1.092;2023-04-23T12:01:55;100944.09;;;18.61;100.00
9784;BME280;4931;44.874;-1.092;2023-04-23T12:04:22;100936.13;;;18.24;100.00
9784;BME280;4931;44.874;-1.092;2023-04-23T12:06:50;100938.41;;;18.31;100.00
9784;BME280;4931;44.874;-1.092;2023-04-23T12:09:18;100949.03;;;18.12;100.00
9784;BME280;4931;44.874;-1.092;2023-04-23T12:11:45;100944.75;;;17.70;100.00
9784;BME280;4931;44.874;-1.092;2023-04-23T12:14:13;100955.16;;;17.56;100.00
9784;BME280;4931;44.874;-1.092;2023-04-23T12:19:07;100953.81;;;17.45;100.00
9784;BME280;4931;44.874;-1.092;2023-04-23T12:21:33;100949.81;;;17.28;100.00
9784;BME280;4931;44.874;-1.092;2023-04-23T12:24:02;100945.91;;;17.20;100.00
9784;BME280;4931;44.874;-1.092;2023-04-23T12:26:28;100943.75;;;17.17;100.00
9784;BME280;4931;44.874;-1.092;2023-04-23T12:28:55;100951.59;;;17.15;100.00
9784;BME280;4931;44.874;-1.092;2023-04-23T12:31:25;100932.00;;;17.12;100.00
9784;BME280;4931;44.874;-1.092;2023-04-23T12:34:03;100949.56;;;17.47;100.00
9784;BME280;4931;44.874;-1.092;2023-04-23T12:36:30;100948.06;;;18.07;100.00
9784;BME280;4931;44.874;-1.092;2023-04-23T12:41:43;100939.06;;;17.93;100.00
9784;BME280;4931;44.874;-1.092;2023-04-23T12:44:08;100949.13;;;18.68;100.00
9784;BME280;4931;44.874;-1.092;2023-04-23T12:46:34;100940.00;;;18.58;100.00
9784;BME280;4931;44.874;-1.092;2023-04-23T12:48:59;100938.41;;;18.40;100.00
9784;BME280;4931;44.874;-1.092;2023-04-23T12:51:24;100954.56;;;18.29;100.00
9784;BME280;4931;44.874;-1.092;2023-04-23T12:53:50;100947.06;;;18.12;100.00
9784;BME280;4931;44.874;-1.092;2023-04-23T12:56:16;100957.84;;;18.22;100.00
9784;BME280;4931;44.874;-1.092;2023-04-23T12:58:41;100955.56;;;18.33;100.00
9784;BME280;4931;44.874;-1.092;2023-04-23T13:01:07;100951.97;;;18.24;100.00